Time;durP1;ratioP1;P1;durP2;ratioP2;P2;SDS_P1;SDS_P2;PMS_P1;PMS_P2;Temp;Humidity;BMP_temperature;BMP_pressure;BME280_temperature;BME280_humidity;BME280_pressure;Samples;Min_cycle;Max_cycle;Signal;HPM_P1;HPM_P2
2022/05/02 00:02:06;;;;;;;;;;;;;;;13.20;100.00;99513.56;5093910;28;19924;-79
2022/05/02 00:04:33;;;;;;;;;;;;;;;13.61;100.00;99505.50;5093680;28;19977;-79
2022/05/02 00:07:00;;;;;;;;;;;;;;;13.80;100.00;99513.91;5092524;28;19930;-79
2022/05/02 00:09:27;;;;;;;;;;;;;;;13.92;100.00;99501.19;5092533;28;19928;-79
2022/05/02 00:11:54;;;;;;;;;;;;;;;13.96;100.00;99510.34;5093773;28;19924;-79
2022/05/02 00:14:21;;;;;;;;;;;;;;;13.97;100.00;99495.06;5075813;28;19931;-80
2022/05/02 00:16:48;;;;;;;;;;;;;;;13.90;100.00;99500.84;5093594;28;19924;-79
2022/05/02 00:19:15;;;;;;;;;;;;;;;13.83;100.00;99496.19;5093476;28;20394;-79
2022/05/02 00:21:42;;;;;;;;;;;;;;;13.37;100.00;99502.00;5093495;28;19924;-79
2022/05/02 00:24:10;;;;;;;;;;;;;;;13.29;100.00;99503.34;5092363;28;19924;-79
2022/05/02 00:26:36;;;;;;;;;;;;;;;13.60;100.00;99495.50;5093547;28;19928;-79
2022/05/02 00:29:04;;;;;;;;;;;;;;;13.63;100.00;99494.63;5092391;28;19924;-79
2022/05/02 00:31:31;;;;;;;;;;;;;;;13.70;100.00;99486.06;5093425;28;20018;-79
2022/05/02 00:33:58;;;;;;;;;;;;;;;13.82;100.00;99493.81;5093228;28;19955;-79
2022/05/02 00:36:26;;;;;;;;;;;;;;;13.59;100.00;99479.88;5091969;28;19924;-79
2022/05/02 00:38:53;;;;;;;;;;;;;;;13.57;100.00;99482.34;5093330;28;19935;-79
2022/05/02 00:41:22;;;;;;;;;;;;;;;13.76;100.00;99478.69;5092137;28;19924;-79
2022/05/02 00:43:49;;;;;;;;;;;;;;;13.77;100.00;99474.66;5093376;28;20361;-79
2022/05/02 00:46:19;;;;;;;;;;;;;;;13.86;100.00;99477.66;5093262;28;20375;-79
2022/05/02 00:48:47;;;;;;;;;;;;;;;13.87;100.00;99476.44;5092073;28;19928;-79
2022/05/02 00:51:15;;;;;;;;;;;;;;;13.84;100.00;99480.13;5092864;28;19930;-79
2022/05/02 00:53:45;;;;;;;;;;;;;;;13.92;100.00;99478.72;5092147;28;20284;-79
2022/05/02 00:56:12;;;;;;;;;;;;;;;13.93;100.00;99478.28;5093108;28;19928;-79
2022/05/02 00:58:39;;;;;;;;;;;;;;;13.58;100.00;99478.28;5093119;28;19928;-79
2022/05/02 01:01:08;;;;;;;;;;;;;;;13.41;100.00;99482.25;5091930;28;19935;-79
2022/05/02 01:03:36;;;;;;;;;;;;;;;13.64;100.00;99482.16;5091812;28;19973;-79
2022/05/02 01:09:04;;;;;;;;;;;;;;;13.38;100.00;99478.31;5036337;28;20023;-79
2022/05/02 01:11:34;;;;;;;;;;;;;;;13.10;100.00;99480.91;5054682;28;19932;-79
2022/05/02 01:14:01;;;;;;;;;;;;;;;13.33;100.00;99494.88;5037937;28;19925;-79
2022/05/02 01:16:29;;;;;;;;;;;;;;;13.35;100.00;99484.00;5054493;28;19925;-79
2022/05/02 01:18:57;;;;;;;;;;;;;;;13.46;100.00;99488.19;5054207;28;19931;-79
2022/05/02 01:21:25;;;;;;;;;;;;;;;13.51;100.00;99486.88;5037889;28;19925;-79
2022/05/02 01:23:53;;;;;;;;;;;;;;;13.61;100.00;99495.06;5054495;28;20320;-79
2022/05/02 01:26:21;;;;;;;;;;;;;;;13.32;100.00;99494.06;5054191;28;19925;-79
2022/05/02 01:28:52;;;;;;;;;;;;;;;13.43;100.00;99493.84;5037748;28;19936;-79
2022/05/02 01:31:19;;;;;;;;;;;;;;;13.58;100.00;99500.75;5054282;28;19969;-79
2022/05/02 01:33:47;;;;;;;;;;;;;;;13.35;100.00;99492.41;5053849;28;19932;-79
2022/05/02 01:36:14;;;;;;;;;;;;;;;13.64;100.00;99496.22;5037399;28;19925;-79
2022/05/02 01:38:42;;;;;;;;;;;;;;;13.70;100.00;99498.09;5054112;28;19967;-79
2022/05/02 01:41:10;;;;;;;;;;;;;;;13.79;100.00;99495.47;5020943;28;19925;-79
2022/05/02 01:43:38;;;;;;;;;;;;;;;13.82;100.00;99491.78;5039785;28;19925;-79
2022/05/02 01:46:06;;;;;;;;;;;;;;;13.79;100.00;99494.69;5095312;28;19924;-79
2022/05/02 01:48:34;;;;;;;;;;;;;;;13.68;100.00;99492.09;5096442;28;19924;-79
2022/05/02 01:51:01;;;;;;;;;;;;;;;13.65;100.00;99490.16;5095140;28;19931;-79
2022/05/02 01:53:28;;;;;;;;;;;;;;;13.66;100.00;99502.19;5096417;28;19924;-79
2022/05/02 01:55:55;;;;;;;;;;;;;;;13.57;100.00;99499.94;5096319;28;19924;-80
2022/05/02 01:58:23;;;;;;;;;;;;;;;13.69;100.00;99507.72;5095061;28;20427;-79
2022/05/02 02:00:50;;;;;;;;;;;;;;;13.66;100.00;99502.19;5096145;28;19924;-79
2022/05/02 02:03:18;;;;;;;;;;;;;;;13.72;100.00;99501.22;5094922;28;19928;-79
2022/05/02 02:05:48;;;;;;;;;;;;;;;13.65;100.00;99500.59;5094921;28;19946;-79
2022/05/02 02:08:16;;;;;;;;;;;;;;;13.72;100.00;99500.47;5078461;28;19924;-79
2022/05/02 02:10:44;;;;;;;;;;;;;;;13.72;100.00;99503.25;5096130;28;19925;-79
2022/05/02 02:13:12;;;;;;;;;;;;;;;13.62;100.00;99507.88;5096140;28;19947;-79
2022/05/02 02:15:39;;;;;;;;;;;;;;;13.62;100.00;99507.06;5095811;28;20286;-80
2022/05/02 02:18:06;;;;;;;;;;;;;;;13.59;100.00;99493.91;5095759;28;19931;-79
2022/05/02 02:20:33;;;;;;;;;;;;;;;13.63;100.00;99503.06;5094034;28;19924;-79
2022/05/02 02:23:01;;;;;;;;;;;;;;;13.69;100.00;99495.72;5094749;28;20297;-80
2022/05/02 02:25:30;;;;;;;;;;;;;;;13.57;100.00;99499.19;5095873;28;19927;-79
2022/05/02 02:27:59;;;;;;;;;;;;;;;13.39;100.00;99498.75;5095934;28;19932;-80
2022/05/02 02:30:27;;;;;;;;;;;;;;;13.56;100.00;99486.34;5095607;28;19931;-79
2022/05/02 02:32:54;;;;;;;;;;;;;;;13.56;100.00;99491.97;5095663;28;20020;-79
2022/05/02 02:35:21;;;;;;;;;;;;;;;13.63;100.00;99491.84;5095583;28;19931;-80
2022/05/02 02:37:48;;;;;;;;;;;;;;;13.70;100.00;99486.06;5094291;28;19928;-79
2022/05/02 02:40:15;;;;;;;;;;;;;;;13.65;100.00;99480.94;5094410;28;19924;-80
2022/05/02 02:42:43;;;;;;;;;;;;;;;13.65;100.00;99489.34;5094268;28;19967;-79
2022/05/02 02:45:11;;;;;;;;;;;;;;;13.68;100.00;99488.50;5095197;28;19925;-79
2022/05/02 02:47:39;;;;;;;;;;;;;;;13.63;100.00;99483.41;5095470;28;19924;-79
2022/05/02 02:50:06;;;;;;;;;;;;;;;13.58;100.00;99495.13;5095451;28;19924;-79
2022/05/02 02:52:33;;;;;;;;;;;;;;;13.61;100.00;99477.41;5095178;28;19924;-79
2022/05/02 02:55:00;;;;;;;;;;;;;;;13.65;100.00;99483.75;5095236;28;19924;-80
2022/05/02 02:57:27;;;;;;;;;;;;;;;13.69;100.00;99487.28;5095092;28;20018;-79
2022/05/02 02:59:54;;;;;;;;;;;;;;;13.75;100.00;99482.75;5094899;28;19928;-79
2022/05/02 03:02:21;;;;;;;;;;;;;;;13.74;100.00;99481.13;5093962;28;19954;-79
2022/05/02 03:07:34;;;;;;;;;;;;;;;13.61;100.00;99478.22;5095114;28;20299;-80
2022/05/02 03:10:02;;;;;;;;;;;;;;;13.48;100.00;99482.13;5094966;28;19924;-79
2022/05/02 03:12:29;;;;;;;;;;;;;;;13.38;100.00;99483.91;5094863;28;19932;-79
2022/05/02 03:14:56;;;;;;;;;;;;;;;13.46;100.00;99476.94;5094546;28;19924;-79
2022/05/02 03:17:23;;;;;;;;;;;;;;;13.51;100.00;99489.69;5094826;28;19924;-79
2022/05/02 03:19:50;;;;;;;;;;;;;;;13.52;100.00;99475.22;5093571;28;19982;-79
2022/05/02 03:22:18;;;;;;;;;;;;;;;13.45;100.00;99486.56;5094781;28;19924;-79
2022/05/02 03:24:46;;;;;;;;;;;;;;;13.49;100.00;99481.69;5094631;28;19924;-79
2022/05/02 03:27:13;;;;;;;;;;;;;;;13.40;100.00;99480.69;5094664;28;19924;-80
2022/05/02 03:29:40;;;;;;;;;;;;;;;13.32;100.00;99487.66;5093307;28;19924;-79
2022/05/02 03:32:07;;;;;;;;;;;;;;;13.30;100.00;99474.06;5093396;28;19935;-80
2022/05/02 03:34:34;;;;;;;;;;;;;;;13.39;100.00;99473.50;5094475;28;19930;-79
2022/05/02 03:37:02;;;;;;;;;;;;;;;13.46;100.00;99476.94;5094458;28;20014;-79
2022/05/02 03:39:29;;;;;;;;;;;;;;;13.50;100.00;99466.41;5093046;28;20398;-79
2022/05/02 03:41:56;;;;;;;;;;;;;;;13.50;100.00;99474.03;5094296;28;19930;-79
2022/05/02 03:44:24;;;;;;;;;;;;;;;13.60;100.00;99476.63;5094170;28;19924;-79
2022/05/02 03:46:51;;;;;;;;;;;;;;;13.63;100.00;99475.75;5093077;28;19924;-79
2022/05/02 03:49:18;;;;;;;;;;;;;;;13.48;100.00;99482.13;5094682;28;19955;-79
2022/05/02 03:51:45;;;;;;;;;;;;;;;12.86;100.00;99474.50;5092660;28;19928;-79
2022/05/02 03:54:12;;;;;;;;;;;;;;;12.63;100.00;99480.91;5076053;28;19924;-79
2022/05/02 03:56:40;;;;;;;;;;;;;;;12.89;100.00;99470.06;5092701;28;20287;-80
2022/05/02 03:59:07;;;;;;;;;;;;;;;12.75;100.00;99471.88;5093836;28;20030;-79
2022/05/02 04:01:39;;;;;;;;;;;;;;;13.06;100.00;99480.94;5093975;28;19931;-79
2022/05/02 04:04:06;;;;;;;;;;;;;;;13.09;100.00;99477.28;5092697;28;19932;-79
2022/05/02 04:06:34;;;;;;;;;;;;;;;13.26;100.00;99478.16;5093887;28;19929;-79
2022/05/02 04:09:02;;;;;;;;;;;;;;;13.28;100.00;99478.53;5093920;28;19930;-79
2022/05/02 04:11:29;;;;;;;;;;;;;;;13.16;100.00;99470.75;5093689;28;19934;-79
2022/05/02 04:13:57;;;;;;;;;;;;;;;13.10;100.00;99476.06;5092445;28;19977;-80
2022/05/02 04:16:24;;;;;;;;;;;;;;;13.16;100.00;99467.94;5092515;28;19924;-79
2022/05/02 04:18:51;;;;;;;;;;;;;;;13.25;100.00;99474.59;5093657;28;20294;-79
2022/05/02 04:21:18;;;;;;;;;;;;;;;13.36;100.00;99479.97;5092521;28;19924;-79
2022/05/02 04:23:45;;;;;;;;;;;;;;;13.42;100.00;99475.44;5093782;28;20011;-79
2022/05/02 04:26:12;;;;;;;;;;;;;;;13.38;100.00;99480.31;5092299;28;19924;-79
2022/05/02 04:28:39;;;;;;;;;;;;;;;13.35;100.00;99478.38;5093362;28;19928;-79
2022/05/02 04:31:07;;;;;;;;;;;;;;;13.22;100.00;99480.25;5092358;28;19924;-79
2022/05/02 04:33:35;;;;;;;;;;;;;;;13.32;100.00;99471.63;5093488;28;19931;-79
2022/05/02 04:36:02;;;;;;;;;;;;;;;13.39;100.00;99473.50;5093475;28;19924;-79
2022/05/02 04:38:30;;;;;;;;;;;;;;;13.40;100.00;99473.06;5093387;28;19928;-79
2022/05/02 04:40:57;;;;;;;;;;;;;;;13.47;100.00;99472.09;5092216;28;19932;-79
2022/05/02 04:43:25;;;;;;;;;;;;;;;13.31;100.00;99472.84;5091702;28;19924;-79
2022/05/02 04:45:52;;;;;;;;;;;;;;;13.36;100.00;99472.31;5093414;28;19924;-79
2022/05/02 04:48:19;;;;;;;;;;;;;;;13.27;100.00;99474.16;5093327;28;20050;-79
2022/05/02 04:50:46;;;;;;;;;;;;;;;13.03;100.00;99475.41;5092057;28;20004;-79
2022/05/02 04:53:16;;;;;;;;;;;;;;;13.03;100.00;99469.78;5092453;28;20452;-79
2022/05/02 04:55:43;;;;;;;;;;;;;;;13.00;100.00;99477.06;5093230;28;19924;-79
2022/05/02 04:58:10;;;;;;;;;;;;;;;12.66;100.00;99473.69;5093539;28;19928;-78
2022/05/02 05:00:37;;;;;;;;;;;;;;;12.20;100.00;99487.66;5093485;28;19931;-79
2022/05/02 05:03:04;;;;;;;;;;;;;;;12.73;100.00;99485.56;5092739;28;19946;-78
2022/05/02 05:05:32;;;;;;;;;;;;;;;13.00;100.00;99476.25;5093313;28;19931;-79
2022/05/02 05:07:59;;;;;;;;;;;;;;;13.20;100.00;99477.88;5091934;28;19928;-79
2022/05/02 05:10:27;;;;;;;;;;;;;;;13.32;100.00;99474.44;5092762;28;20041;-79
2022/05/02 05:12:54;;;;;;;;;;;;;;;13.14;100.00;99478.81;5092964;28;19930;-79
2022/05/02 05:18:31;;;;;;;;;;;;;;;13.26;100.00;99480.97;5091798;28;19931;-79
2022/05/02 05:21:11;;;;;;;;;;;;;;;13.28;100.00;99484.94;5087705;28;19928;-79
2022/05/02 05:24:04;;;;;;;;;;;;;;;13.36;100.00;99486.34;5092784;28;19985;-79
2022/05/02 05:26:54;;;;;;;;;;;;;;;13.04;100.00;99483.38;5092720;28;20001;-79
2022/05/02 05:29:22;;;;;;;;;;;;;;;13.06;100.00;99492.19;5075097;28;19924;-79
2022/05/02 05:31:49;;;;;;;;;;;;;;;13.25;100.00;99493.41;5092857;28;19924;-79
2022/05/02 05:34:16;;;;;;;;;;;;;;;13.24;100.00;99491.84;5091553;28;19993;-79
2022/05/02 05:36:56;;;;;;;;;;;;;;;12.59;100.00;99499.81;5091555;28;20033;-79
2022/05/02 05:39:26;;;;;;;;;;;;;;;12.73;100.00;99504.38;5091281;28;19924;-79
2022/05/02 05:42:12;;;;;;;;;;;;;;;13.22;100.00;99505.50;5092817;28;20408;-79
2022/05/02 05:44:52;;;;;;;;;;;;;;;13.39;100.00;99499.53;5092684;28;19924;-79
2022/05/02 05:47:40;;;;;;;;;;;;;;;13.43;100.00;99499.47;5092799;28;20116;-79
2022/05/02 05:50:24;;;;;;;;;;;;;;;13.09;100.00;99498.94;5092449;28;20391;-79
2022/05/02 05:53:01;;;;;;;;;;;;;;;13.14;100.00;99501.25;5074290;28;19955;-79
2022/05/02 05:55:36;;;;;;;;;;;;;;;13.12;100.00;99506.50;5092576;28;19947;-79
2022/05/02 05:58:20;;;;;;;;;;;;;;;13.19;100.00;99503.56;5096331;28;19924;-79
2022/05/02 06:00:50;;;;;;;;;;;;;;;13.31;100.00;99511.34;5096325;28;19931;-79
2022/05/02 06:03:23;;;;;;;;;;;;;;;13.20;100.00;99514.34;5078092;28;19924;-79
2022/05/02 06:05:51;;;;;;;;;;;;;;;12.91;100.00;99509.66;5093223;28;19932;-79
2022/05/02 06:08:21;;;;;;;;;;;;;;;13.13;100.00;99510.91;5096247;28;19928;-79
2022/05/02 06:10:50;;;;;;;;;;;;;;;13.17;100.00;99514.41;5078233;28;19924;-79
2022/05/02 06:13:17;;;;;;;;;;;;;;;13.27;100.00;99519.03;5094740;28;19924;-79
2022/05/02 06:18:43;;;;;;;;;;;;;;;13.70;100.00;99500.09;5096045;28;19924;-79
2022/05/02 06:21:10;;;;;;;;;;;;;;;13.96;100.00;99515.97;5094802;28;19924;-79
2022/05/02 06:23:46;;;;;;;;;;;;;;;14.08;100.00;99515.28;5094472;28;19989;-79
2022/05/02 06:26:14;;;;;;;;;;;;;;;14.16;100.00;99522.34;5095779;28;19928;-79
2022/05/02 06:28:42;;;;;;;;;;;;;;;14.21;100.00;99516.19;5095834;28;19924;-79
2022/05/02 06:31:15;;;;;;;;;;;;;;;14.25;100.00;99520.53;5095698;28;19928;-79
2022/05/02 06:33:44;;;;;;;;;;;;;;;14.34;100.00;99517.88;5094508;28;20382;-79
2022/05/02 06:36:14;;;;;;;;;;;;;;;14.41;100.00;99519.75;5094084;28;20217;-79
2022/05/02 06:38:41;;;;;;;;;;;;;;;14.37;100.00;99519.81;5095367;28;20333;-79
2022/05/02 06:41:11;;;;;;;;;;;;;;;14.43;100.00;99517.31;5095622;28;20294;-79
2022/05/02 06:43:59;;;;;;;;;;;;;;;14.43;100.00;99520.13;5095468;28;19924;-79
2022/05/02 06:46:28;;;;;;;;;;;;;;;14.38;100.00;99520.63;5094295;28;19931;-79
2022/05/02 06:48:56;;;;;;;;;;;;;;;14.27;100.00;99522.88;5094172;28;20360;-79
2022/05/02 06:51:46;;;;;;;;;;;;;;;14.40;100.00;99521.75;5095121;28;19960;-79
2022/05/02 06:54:16;;;;;;;;;;;;;;;14.63;100.00;99523.59;5095320;28;20306;-79
2022/05/02 06:57:02;;;;;;;;;;;;;;;14.67;100.00;99521.50;5093939;28;20346;-79
2022/05/02 06:59:52;;;;;;;;;;;;;;;14.72;100.00;99528.63;5093826;28;19982;-79
2022/05/02 07:02:27;;;;;;;;;;;;;;;14.72;100.00;99529.44;5095239;28;20322;-79
2022/05/02 07:04:55;;;;;;;;;;;;;;;14.71;100.00;99532.69;5093891;28;19924;-79
2022/05/02 07:07:42;;;;;;;;;;;;;;;14.70;100.00;99526.25;5093408;28;20343;-79
2022/05/02 07:10:14;;;;;;;;;;;;;;;14.87;100.00;99530.66;5093747;28;20291;-79
2022/05/02 07:12:49;;;;;;;;;;;;;;;14.85;100.00;99527.47;5093775;28;19924;-79
2022/05/02 07:15:16;;;;;;;;;;;;;;;14.95;100.00;99532.03;5093710;28;20364;-79
2022/05/02 07:17:43;;;;;;;;;;;;;;;15.25;100.00;99533.66;5094791;28;19931;-79
2022/05/02 07:20:17;;;;;;;;;;;;;;;15.30;100.00;99524.66;5093408;28;19928;-79
2022/05/02 07:22:54;;;;;;;;;;;;;;;15.42;100.00;99532.41;5093546;28;20448;-79
2022/05/02 07:25:22;;;;;;;;;;;;;;;15.61;100.00;99535.06;5094705;28;19924;-79
2022/05/02 07:27:56;;;;;;;;;;;;;;;15.80;100.00;99542.53;5094545;28;19931;-79
2022/05/02 07:30:24;;;;;;;;;;;;;;;15.84;100.00;99534.75;5094648;28;19924;-79
2022/05/02 07:32:53;;;;;;;;;;;;;;;15.90;100.00;99535.78;5093339;28;19928;-79
2022/05/02 07:35:24;;;;;;;;;;;;;;;15.96;100.00;99530.41;5094110;28;19981;-79
2022/05/02 07:37:52;;;;;;;;;;;;;;;15.84;100.00;99525.53;5093178;28;20375;-79
2022/05/02 07:40:21;;;;;;;;;;;;;;;15.83;100.00;99529.59;5094419;28;19931;-79
2022/05/02 07:42:51;;;;;;;;;;;;;;;15.76;100.00;99524.97;5093202;28;20405;-79
2022/05/02 07:45:21;;;;;;;;;;;;;;;15.30;100.00;99525.44;5093027;28;20387;-79
2022/05/02 07:47:48;;;;;;;;;;;;;;;15.44;100.00;99529.94;5094232;28;20287;-79
2022/05/02 07:50:17;;;;;;;;;;;;;;;15.53;100.00;99532.88;5093751;28;20328;-79
2022/05/02 07:52:45;;;;;;;;;;;;;;;15.53;100.00;99536.50;5093652;28;19924;-79
2022/05/02 07:55:13;;;;;;;;;;;;;;;15.51;100.00;99533.31;5093999;28;19923;-79
2022/05/02 07:57:41;;;;;;;;;;;;;;;15.78;100.00;99533.75;5094004;28;20400;-79
2022/05/02 08:00:10;;;;;;;;;;;;;;;15.85;100.00;99533.56;5093884;28;19924;-79
2022/05/02 08:02:41;;;;;;;;;;;;;;;16.10;100.00;99533.56;5092839;28;19981;-79
2022/05/02 08:05:09;;;;;;;;;;;;;;;16.31;100.00;99536.97;5093530;28;19924;-78
2022/05/02 08:07:38;;;;;;;;;;;;;;;16.54;100.00;99533.84;5093979;28;19924;-79
2022/05/02 08:10:28;;;;;;;;;;;;;;;16.74;100.00;99542.84;5093811;28;19985;-79
2022/05/02 08:12:56;;;;;;;;;;;;;;;16.63;100.00;99545.25;5093710;28;19924;-79
2022/05/02 08:15:31;;;;;;;;;;;;;;;16.76;100.00;99546.00;5093712;28;19924;-79
2022/05/02 08:18:19;;;;;;;;;;;;;;;16.98;100.00;99542.00;5092941;28;19928;-79
2022/05/02 08:20:47;;;;;;;;;;;;;;;17.03;100.00;99549.91;5075757;28;19924;-79
2022/05/02 08:29:39;;;;;;;;;;;;;;;16.72;100.00;99545.34;5093529;28;19961;-79
2022/05/02 08:32:07;;;;;;;;;;;;;;;16.60;100.00;99544.09;5093334;28;20291;-79
2022/05/02 08:34:40;;;;;;;;;;;;;;;16.65;100.00;99545.56;5093408;28;19924;-79
2022/05/02 08:37:17;;;;;;;;;;;;;;;16.95;100.00;99548.56;5093339;28;20402;-79
2022/05/02 08:39:50;;;;;;;;;;;;;;;16.27;100.00;99554.81;5093318;28;20450;-79
2022/05/02 08:42:29;;;;;;;;;;;;;;;16.23;100.00;99551.31;5093413;28;19959;-79
2022/05/02 08:45:05;;;;;;;;;;;;;;;16.90;100.00;99551.19;5093272;28;19931;-79
2022/05/02 08:47:41;;;;;;;;;;;;;;;16.99;100.00;99548.44;5091775;28;19924;-79
2022/05/02 08:50:09;;;;;;;;;;;;;;;17.24;100.00;99543.53;5093271;28;19924;-79
2022/05/02 08:52:54;;;;;;;;;;;;;;;17.45;100.00;99547.63;5092941;28;20062;-79
2022/05/02 08:55:36;;;;;;;;;;;;;;;17.49;100.00;99545.50;5075500;28;19928;-79
2022/05/02 08:58:15;;;;;;;;;;;;;;;17.38;100.00;99545.03;5091878;28;19924;-79
2022/05/02 09:00:49;;;;;;;;;;;;;;;17.19;100.00;99546.16;5092928;28;20397;-79
2022/05/02 09:03:17;;;;;;;;;;;;;;;16.94;100.00;99540.56;5091484;28;19924;-79
2022/05/02 09:06:03;;;;;;;;;;;;;;;17.19;100.00;99540.50;5093017;28;19924;-79
2022/05/02 09:08:33;;;;;;;;;;;;;;;16.70;100.00;99547.81;5092983;28;19924;-79
2022/05/02 09:11:31;;;;;;;;;;;;;;;17.09;100.00;99545.25;5093299;28;19931;-79
2022/05/02 09:14:17;;;;;;;;;;;;;;;17.30;100.00;99549.38;5092983;28;19925;-79
2022/05/02 09:16:45;;;;;;;;;;;;;;;16.87;100.00;99549.28;5092749;28;20341;-79
2022/05/02 09:19:31;;;;;;;;;;;;;;;16.68;100.00;99539.81;5074958;28;19928;-79
2022/05/02 09:22:11;;;;;;;;;;;;;;;16.19;100.00;99549.84;5074883;28;20023;-79
2022/05/02 09:25:02;;;;;;;;;;;;;;;16.55;100.00;99546.69;5091831;28;20034;-79
2022/05/02 09:27:48;;;;;;;;;;;;;;;16.13;100.00;99554.44;5087281;28;19924;-79
2022/05/02 09:30:23;;;;;;;;;;;;;;;16.52;100.00;99544.78;5095421;28;19932;-79
2022/05/02 09:33:21;;;;;;;;;;;;;;;17.04;100.00;99536.59;5096799;28;20375;-79
2022/05/02 09:35:53;;;;;;;;;;;;;;;17.03;100.00;99543.47;5096761;28;20010;-79
2022/05/02 09:38:25;;;;;;;;;;;;;;;17.27;100.00;99550.28;5096788;28;20020;-79
2022/05/02 09:41:14;;;;;;;;;;;;;;;17.45;100.00;99545.63;5096600;28;19924;-79
2022/05/02 09:49:37;;;;;;;;;;;;;;;16.67;100.00;99541.06;5096351;28;19924;-79
2022/05/02 09:52:09;;;;;;;;;;;;;;;16.54;100.00;99543.09;5096100;28;19924;-79
2022/05/02 09:57:50;;;;;;;;;;;;;;;17.44;100.00;99548.91;5014014;28;19925;-79
2022/05/02 10:03:24;;;;;;;;;;;;;;;17.86;100.00;99544.50;5013989;28;19926;-79
2022/05/02 10:06:02;;;;;;;;;;;;;;;16.79;100.00;99551.53;5013929;28;20132;-79
2022/05/02 10:08:41;;;;;;;;;;;;;;;16.48;100.00;99546.94;5013710;28;19976;-79
2022/05/02 10:11:16;;;;;;;;;;;;;;;17.25;100.00;99544.31;5013659;28;19933;-79
2022/05/02 10:14:02;;;;;;;;;;;;;;;17.20;100.00;99554.16;4997265;28;19925;-79
2022/05/02 10:16:42;;;;;;;;;;;;;;;17.17;100.00;99548.63;5013629;28;19925;-79
2022/05/02 10:19:09;;;;;;;;;;;;;;;17.05;100.00;99555.91;4981115;28;19930;-79
2022/05/02 10:21:37;;;;;;;;;;;;;;;16.90;100.00;99549.16;5013597;28;19929;-79
2022/05/02 10:24:16;;;;;;;;;;;;;;;17.34;100.00;99542.34;5013619;28;19972;-79
2022/05/02 10:26:50;;;;;;;;;;;;;;;17.39;100.00;99540.97;5013633;28;19926;-79
2022/05/02 10:29:30;;;;;;;;;;;;;;;17.27;100.00;99548.25;4997023;28;19933;-79
2022/05/02 10:32:20;;;;;;;;;;;;;;;17.81;100.00;99545.13;5060250;28;19924;-80
2022/05/02 10:34:52;;;;;;;;;;;;;;;17.67;100.00;99545.63;5094399;28;19931;-79
2022/05/02 10:37:23;;;;;;;;;;;;;;;17.68;100.00;99545.16;5095633;28;19924;-79
2022/05/02 10:39:54;;;;;;;;;;;;;;;17.62;100.00;99534.91;5095596;28;19931;-79
2022/05/02 10:42:25;;;;;;;;;;;;;;;17.34;100.00;99541.56;5076814;28;19930;-80
2022/05/02 10:44:57;;;;;;;;;;;;;;;16.82;100.00;99541.38;5095224;28;19924;-79
2022/05/02 10:47:25;;;;;;;;;;;;;;;16.94;100.00;99543.38;5095485;28;19924;-79
2022/05/02 10:50:03;;;;;;;;;;;;;;;17.21;100.00;99541.59;5095423;28;19924;-79
2022/05/02 10:52:37;;;;;;;;;;;;;;;17.40;100.00;99534.09;5095060;28;19931;-79
2022/05/02 10:55:05;;;;;;;;;;;;;;;16.65;100.00;99539.91;5077311;28;20054;-79
2022/05/02 10:57:39;;;;;;;;;;;;;;;16.62;100.00;99541.63;5095031;28;20006;-79
2022/05/02 11:00:10;;;;;;;;;;;;;;;17.18;100.00;99536.88;5094895;28;20294;-79
2022/05/02 11:02:37;;;;;;;;;;;;;;;16.75;100.00;99535.97;5094995;28;19924;-79
2022/05/02 11:05:06;;;;;;;;;;;;;;;16.51;100.00;99537.59;5094795;28;19931;-79
2022/05/02 11:07:39;;;;;;;;;;;;;;;16.79;100.00;99533.81;5093876;28;19939;-79
2022/05/02 11:10:11;;;;;;;;;;;;;;;16.74;100.00;99534.38;5093859;28;19924;-79
2022/05/02 11:12:44;;;;;;;;;;;;;;;16.77;100.00;99545.56;5093575;28;19999;-79
2022/05/02 11:15:21;;;;;;;;;;;;;;;16.86;100.00;99533.56;5094201;28;19927;-78
2022/05/02 11:17:55;;;;;;;;;;;;;;;16.98;100.00;99524.31;5096305;28;19931;-78
2022/05/02 11:20:41;;;;;;;;;;;;;;;16.50;100.00;99533.16;5096100;28;19928;-78
2022/05/02 11:23:24;;;;;;;;;;;;;;;17.01;100.00;99538.28;5096667;28;19930;-80
2022/05/02 11:26:00;;;;;;;;;;;;;;;16.57;100.00;99538.59;5095218;28;20371;-80
2022/05/02 11:28:37;;;;;;;;;;;;;;;16.83;100.00;99542.94;5094530;28;20043;-79
2022/05/02 11:31:12;;;;;;;;;;;;;;;17.19;100.00;99540.50;5094629;28;19924;-79
2022/05/02 11:33:49;;;;;;;;;;;;;;;17.43;100.00;99538.81;5094449;28;19924;-79
2022/05/02 11:36:21;;;;;;;;;;;;;;;17.45;100.00;99544.81;5094478;28;19955;-79
2022/05/02 11:38:48;;;;;;;;;;;;;;;17.22;100.00;99540.34;5093382;28;19924;-79
2022/05/02 11:41:15;;;;;;;;;;;;;;;17.00;100.00;99550.03;5094345;28;19970;-79
2022/05/02 11:43:43;;;;;;;;;;;;;;;16.89;100.00;99544.75;5094241;28;20012;-79
2022/05/02 11:46:26;;;;;;;;;;;;;;;16.91;100.00;99544.28;5093153;28;20375;-79
2022/05/02 11:48:59;;;;;;;;;;;;;;;16.94;100.00;99546.19;5094261;28;19931;-79
2022/05/02 11:51:43;;;;;;;;;;;;;;;16.83;100.00;99555.03;5093062;28;19931;-79
2022/05/02 11:54:29;;;;;;;;;;;;;;;16.74;100.00;99551.31;5091908;28;19931;-79
2022/05/02 11:57:03;;;;;;;;;;;;;;;16.89;100.00;99549.63;5092752;28;19931;-80
2022/05/02 11:59:52;;;;;;;;;;;;;;;16.95;100.00;99548.56;5093961;28;19924;-79
2022/05/02 12:02:31;;;;;;;;;;;;;;;17.11;100.00;99544.81;5086263;28;19924;-79
2022/05/02 12:05:01;;;;;;;;;;;;;;;16.75;100.00;99550.84;5059391;28;19934;-79
2022/05/02 12:07:29;;;;;;;;;;;;;;;16.53;100.00;99546.34;5093945;28;19931;-79
2022/05/02 12:10:04;;;;;;;;;;;;;;;16.43;100.00;99562.38;5093573;28;19924;-79
2022/05/02 12:12:32;;;;;;;;;;;;;;;16.16;100.00;99559.97;5093719;28;19924;-79
2022/05/02 12:15:09;;;;;;;;;;;;;;;16.25;100.00;99557.28;5093606;28;19924;-80
2022/05/02 12:17:53;;;;;;;;;;;;;;;16.60;100.00;99554.59;5092388;28;19952;-79
2022/05/02 12:20:35;;;;;;;;;;;;;;;17.02;100.00;99550.38;5092428;28;19973;-79
2022/05/02 12:23:03;;;;;;;;;;;;;;;17.13;100.00;99543.09;5093541;28;19974;-79
2022/05/02 12:25:31;;;;;;;;;;;;;;;17.53;100.00;99544.13;5093295;28;19924;-79
2022/05/02 12:28:03;;;;;;;;;;;;;;;17.80;100.00;99547.13;5093532;28;19935;-79
2022/05/02 12:30:31;;;;;;;;;;;;;;;17.71;100.00;99537.78;5093438;28;19960;-79
2022/05/02 12:33:00;;;;;;;;;;;;;;;17.89;100.00;99533.06;5093711;28;19928;-79
2022/05/02 12:35:34;;;;;;;;;;;;;;;17.72;100.00;99542.22;5093508;28;19932;-79
2022/05/02 12:38:28;;;;;;;;;;;;;;;17.88;100.00;99539.19;5092182;28;19924;-79
2022/05/02 12:41:01;;;;;;;;;;;;;;;18.03;100.00;99537.38;5091520;28;19924;-79
2022/05/02 12:43:42;;;;;;;;;;;;;;;17.99;100.00;99548.06;5093605;28;19993;-79
2022/05/02 12:46:09;;;;;;;;;;;;;;;17.66;100.00;99535.59;5093264;28;19931;-79
2022/05/02 12:48:38;;;;;;;;;;;;;;;17.39;100.00;99538.13;5093254;28;19924;-79
2022/05/02 12:51:15;;;;;;;;;;;;;;;17.25;100.00;99533.78;5091872;28;20005;-79
2022/05/02 12:56:28;;;;;;;;;;;;;;;17.01;100.00;99535.44;5091884;28;19924;-79
2022/05/02 13:02:01;;;;;;;;;;;;;;;17.19;100.00;99546.16;5030552;28;20075;-79
2022/05/02 13:04:28;;;;;;;;;;;;;;;17.16;100.00;99542.19;5030250;28;19925;-79
2022/05/02 13:06:58;;;;;;;;;;;;;;;17.25;100.00;99544.31;5030531;28;19925;-79
2022/05/02 13:09:35;;;;;;;;;;;;;;;17.40;100.00;99543.34;5030261;28;19925;-79
2022/05/02 13:12:07;;;;;;;;;;;;;;;17.35;100.00;99548.78;5030602;28;19925;-80
2022/05/02 13:14:36;;;;;;;;;;;;;;;17.48;100.00;99543.91;5030433;28;19925;-80
2022/05/02 13:17:10;;;;;;;;;;;;;;;17.42;100.00;99543.66;5030464;28;20022;-79
2022/05/02 13:19:37;;;;;;;;;;;;;;;17.38;100.00;99550.69;4997834;28;20471;-79
2022/05/02 13:22:05;;;;;;;;;;;;;;;17.43;100.00;99538.81;5030262;28;20384;-79
2022/05/02 13:24:32;;;;;;;;;;;;;;;17.52;100.00;99545.34;5030310;28;19931;-79
2022/05/02 13:27:06;;;;;;;;;;;;;;;17.52;100.00;99548.16;5030277;28;19925;-79
2022/05/02 13:29:42;;;;;;;;;;;;;;;17.57;100.00;99544.75;5030332;28;19972;-80
2022/05/02 13:32:23;;;;;;;;;;;;;;;17.54;100.00;99544.88;5030413;28;19964;-80
2022/05/02 13:35:00;;;;;;;;;;;;;;;17.58;100.00;99548.38;5030063;28;19929;-79